createdAt,value
2022-08-23T00:00:13.788Z,56.77
2022-08-23T00:02:42.537Z,56.31
2022-08-23T00:05:12.392Z,56.05
2022-08-23T00:07:41.209Z,56.33
2022-08-23T00:10:11.439Z,56.87
2022-08-23T00:12:39.996Z,57.03
2022-08-23T00:15:09.655Z,56.57
2022-08-23T00:17:39.161Z,57.12
2022-08-23T00:20:08.790Z,57.17
2022-08-23T00:22:38.127Z,57.04
2022-08-23T00:25:07.388Z,56.79
2022-08-23T00:27:36.178Z,56.24
2022-08-23T00:30:06.119Z,56.67
2022-08-23T00:32:36.484Z,56.77
2022-08-23T00:35:07.384Z,56.86
2022-08-23T00:37:35.358Z,57.22
2022-08-23T00:40:03.860Z,57.18
2022-08-23T00:42:53.433Z,57.20
2022-08-23T00:45:42.809Z,57.40
2022-08-23T00:48:11.591Z,57.43
2022-08-23T00:50:44.027Z,57.67
2022-08-23T00:53:16.698Z,57.86
2022-08-23T00:55:46.781Z,57.94
2022-08-23T00:58:15.826Z,58.08
2022-08-23T01:00:43.516Z,58.51
2022-08-23T01:03:13.426Z,58.42
2022-08-23T01:05:48.854Z,58.46
2022-08-23T01:08:17.206Z,58.71
2022-08-23T01:10:47.392Z,58.74
2022-08-23T01:13:17.665Z,59.03
2022-08-23T01:15:48.028Z,58.86
2022-08-23T01:18:18.312Z,59.06
2022-08-23T01:20:52.523Z,58.97
2022-08-23T01:23:29.363Z,58.52
2022-08-23T01:25:58.355Z,59.14
2022-08-23T01:28:26.171Z,59.12
2022-08-23T01:30:53.967Z,59.62
2022-08-23T01:33:21.791Z,59.83
2022-08-23T01:35:53.391Z,60.09
2022-08-23T01:38:22.261Z,59.86
2022-08-23T01:40:51.523Z,60.25
2022-08-23T01:43:21.407Z,60.60
2022-08-23T01:45:49.892Z,60.57
2022-08-23T01:48:18.937Z,60.90
2022-08-23T01:50:47.165Z,60.92
2022-08-23T01:53:18.074Z,60.98
2022-08-23T01:55:45.726Z,61.02
2022-08-23T01:58:14.786Z,61.06
2022-08-23T02:00:44.315Z,61.15
2022-08-23T02:03:12.516Z,61.07
2022-08-23T02:05:40.990Z,61.41
2022-08-23T02:08:26.772Z,61.53
2022-08-23T02:10:54.933Z,61.87
2022-08-23T02:13:23.953Z,62.14
2022-08-23T02:15:52.495Z,61.92
2022-08-23T02:18:21.288Z,61.95
2022-08-23T02:20:50.047Z,61.73
2022-08-23T02:23:18.280Z,62.12
2022-08-23T02:25:45.931Z,62.37
2022-08-23T02:28:13.548Z,62.47
2022-08-23T02:30:42.531Z,62.28
2022-08-23T02:33:13.019Z,62.21
2022-08-23T02:35:43.308Z,62.40
2022-08-23T02:38:13.006Z,62.20
2022-08-23T02:40:42.250Z,62.34
2022-08-23T02:43:09.985Z,62.88
2022-08-23T02:45:37.910Z,63.12
2022-08-23T02:48:08.115Z,63.37
2022-08-23T02:50:36.698Z,63.22
2022-08-23T02:53:05.255Z,63.31
2022-08-23T02:55:32.896Z,63.48
2022-08-23T02:58:00.870Z,63.25
2022-08-23T03:00:28.849Z,64.03
2022-08-23T03:02:56.486Z,64.05
2022-08-23T03:05:25.503Z,64.24
2022-08-23T03:07:53.160Z,64.64
2022-08-23T03:10:21.546Z,64.40
2022-08-23T03:12:49.283Z,64.53
2022-08-23T03:15:16.885Z,64.10
2022-08-23T03:17:44.459Z,64.94
2022-08-23T03:20:12.464Z,64.62
2022-08-23T03:22:41.532Z,64.89
2022-08-23T03:25:21.600Z,64.70
2022-08-23T03:27:49.262Z,65.17
2022-08-23T03:30:20.045Z,65.25
2022-08-23T03:32:48.955Z,65.59
2022-08-23T03:35:17.254Z,65.53
2022-08-23T03:37:46.369Z,65.87
2022-08-23T03:40:14.098Z,65.69
2022-08-23T03:42:41.779Z,65.63
2022-08-23T03:45:10.063Z,65.81
2022-08-23T03:47:37.669Z,65.87
2022-08-23T03:50:05.975Z,66.18
2022-08-23T03:52:33.639Z,66.33
2022-08-23T03:55:02.737Z,66.17
2022-08-23T03:57:30.366Z,66.11
2022-08-23T03:59:59.827Z,66.31
2022-08-23T04:02:27.674Z,66.88
2022-08-23T04:04:56.750Z,66.88
2022-08-23T04:07:24.571Z,66.62
2022-08-23T04:09:55.131Z,66.66
2022-08-23T04:12:24.598Z,66.78
2022-08-23T04:14:53.388Z,66.79
2022-08-23T04:17:21.608Z,67.03
2022-08-23T04:19:49.457Z,67.15
2022-08-23T04:22:19.107Z,67.74
2022-08-23T04:24:47.678Z,67.47
2022-08-23T04:27:16.847Z,67.39
2022-08-23T04:29:45.829Z,67.97
2022-08-23T04:32:14.697Z,67.92
2022-08-23T04:34:54.643Z,67.88
2022-08-23T04:37:23.229Z,67.90
2022-08-23T04:40:08.509Z,67.73
2022-08-23T04:42:36.253Z,67.91
2022-08-23T04:45:05.696Z,67.82
2022-08-23T04:47:36.981Z,67.45
2022-08-23T04:50:05.037Z,67.57
2022-08-23T04:52:32.700Z,67.76
2022-08-23T04:55:00.365Z,67.72
2022-08-23T04:57:28.105Z,67.48
2022-08-23T04:59:55.902Z,67.93
2022-08-23T05:02:25.057Z,68.16
2022-08-23T05:04:52.754Z,68.05
2022-08-23T05:07:21.755Z,67.79
2022-08-23T05:10:13.733Z,68.17
2022-08-23T05:12:41.782Z,68.40
2022-08-23T05:15:10.466Z,68.21
2022-08-23T05:17:40.146Z,68.28
2022-08-23T05:20:09.198Z,68.03
2022-08-23T05:22:38.139Z,67.97
2022-08-23T05:25:06.901Z,68.22
2022-08-23T05:27:34.593Z,68.30
2022-08-23T05:30:02.855Z,68.23
2022-08-23T05:32:33.524Z,68.13
2022-08-23T05:35:02.928Z,68.00
2022-08-23T05:37:30.573Z,68.07
2022-08-23T05:39:58.314Z,67.64
2022-08-23T05:42:25.977Z,67.71
2022-08-23T05:44:53.693Z,67.76
2022-08-23T05:47:24.685Z,67.33
2022-08-23T05:49:52.902Z,67.47
2022-08-23T05:52:21.902Z,67.17
2022-08-23T05:54:49.655Z,67.31
2022-08-23T05:57:17.317Z,67.04
2022-08-23T05:59:45.026Z,66.69
2022-08-23T06:02:12.649Z,66.45
2022-08-23T06:04:40.346Z,67.16
2022-08-23T06:07:09.783Z,67.14
2022-08-23T06:09:39.045Z,67.15
2022-08-23T06:12:06.878Z,67.04
2022-08-23T06:14:34.529Z,66.71
2022-08-23T06:17:02.455Z,66.78
2022-08-23T06:19:30.112Z,66.25
2022-08-23T06:21:57.868Z,66.12
2022-08-23T06:24:25.828Z,65.66
2022-08-23T06:26:54.933Z,65.49
2022-08-23T06:29:23.174Z,65.85
2022-08-23T06:31:52.677Z,65.13
2022-08-23T06:34:23.314Z,65.29
2022-08-23T06:36:52.845Z,65.11
2022-08-23T06:39:22.177Z,65.79
2022-08-23T06:41:50.452Z,65.27
2022-08-23T06:44:20.570Z,64.46
2022-08-23T06:46:49.542Z,63.95
2022-08-23T06:49:17.636Z,63.71
2022-08-23T06:51:47.707Z,64.06
2022-08-23T06:54:17.071Z,63.70
2022-08-23T06:56:46.037Z,63.30
2022-08-23T06:59:15.359Z,63.89
2022-08-23T07:01:47.350Z,63.46
2022-08-23T07:04:18.006Z,63.28
2022-08-23T07:06:46.634Z,63.46
2022-08-23T07:09:14.650Z,63.09
2022-08-23T07:11:42.945Z,63.40
2022-08-23T07:14:13.436Z,63.11
2022-08-23T07:16:45.840Z,62.70
2022-08-23T07:19:13.797Z,62.30
2022-08-23T07:21:42.363Z,62.33
2022-08-23T07:24:10.322Z,61.90
2022-08-23T07:26:39.252Z,61.06
2022-08-23T07:29:08.299Z,61.13
2022-08-23T07:31:40.390Z,60.25
2022-08-23T07:34:10.234Z,60.77
2022-08-23T07:36:39.033Z,60.61
2022-08-23T07:39:07.680Z,60.64
2022-08-23T07:41:36.113Z,59.81
2022-08-23T07:44:06.005Z,60.39
2022-08-23T07:46:34.485Z,60.38
2022-08-23T07:49:03.319Z,59.82
2022-08-23T07:51:33.650Z,59.44
2022-08-23T07:54:02.619Z,58.82
2022-08-23T07:56:30.440Z,59.80
2022-08-23T07:58:58.072Z,59.01
2022-08-23T08:01:27.839Z,59.26
2022-08-23T08:03:58.373Z,58.81
2022-08-23T08:06:29.034Z,59.34
2022-08-23T08:08:58.699Z,58.54
2022-08-23T08:11:33.881Z,57.99
2022-08-23T08:14:04.232Z,57.55
2022-08-23T08:16:34.132Z,57.92
2022-08-23T08:19:07.426Z,57.37
2022-08-23T08:21:35.875Z,57.37
2022-08-23T08:24:09.883Z,57.28
2022-08-23T08:26:37.684Z,56.62
2022-08-23T08:29:05.426Z,56.66
2022-08-23T08:31:34.280Z,57.09
2022-08-23T08:34:02.087Z,56.56
2022-08-23T08:36:32.622Z,56.41
2022-08-23T08:39:00.996Z,55.55
2022-08-23T08:41:48.446Z,55.36
2022-08-23T08:44:26.716Z,54.64
2022-08-23T08:46:57.232Z,55.32
2022-08-23T08:49:34.050Z,54.32
2022-08-23T08:52:07.043Z,54.25
2022-08-23T08:54:34.727Z,54.52
2022-08-23T08:57:03.903Z,54.42
2022-08-23T08:59:47.660Z,53.00
2022-08-23T09:02:32.736Z,54.07
2022-08-23T09:05:02.598Z,54.02
2022-08-23T09:07:39.265Z,53.82
2022-08-23T09:10:22.853Z,53.02
2022-08-23T09:13:03.507Z,52.98
2022-08-23T09:15:35.284Z,52.82
2022-08-23T09:18:09.077Z,53.06
2022-08-23T09:20:37.260Z,52.65
2022-08-23T09:23:08.913Z,52.10
2022-08-23T09:25:36.618Z,52.20
2022-08-23T09:28:06.281Z,52.08
2022-08-23T09:30:49.973Z,51.61
2022-08-23T09:33:18.864Z,51.69
2022-08-23T09:36:03.641Z,51.76
2022-08-23T09:38:31.282Z,51.32
2022-08-23T09:40:59.318Z,51.44
2022-08-23T09:43:31.361Z,50.37
2022-08-23T09:46:01.839Z,50.44
2022-08-23T09:48:39.920Z,50.92
2022-08-23T09:51:16.685Z,50.23
2022-08-23T09:53:50.017Z,50.35
2022-08-23T09:56:20.656Z,50.03
2022-08-23T09:58:52.523Z,49.63
2022-08-23T10:01:22.235Z,49.47
2022-08-23T10:04:08.668Z,49.76
2022-08-23T10:06:36.628Z,48.62
2022-08-23T10:09:06.527Z,48.87
2022-08-23T10:11:38.547Z,49.12
2022-08-23T10:14:07.669Z,48.83
2022-08-23T10:16:42.129Z,49.02
2022-08-23T10:19:15.989Z,48.71
2022-08-23T10:21:49.594Z,48.10
2022-08-23T10:24:24.127Z,48.09
2022-08-23T10:27:33.691Z,48.71
2022-08-23T10:30:07.410Z,48.40
2022-08-23T10:32:46.632Z,47.81
2022-08-23T10:35:32.742Z,47.73
2022-08-23T10:38:30.674Z,47.59
2022-08-23T10:41:04.933Z,46.52
2022-08-23T10:43:39.961Z,47.28
2022-08-23T10:46:09.703Z,47.38
2022-08-23T10:48:40.585Z,46.27
2022-08-23T10:51:11.708Z,46.70
2022-08-23T10:53:46.255Z,46.24
2022-08-23T10:56:18.978Z,45.69
2022-08-23T10:58:48.443Z,45.94
2022-08-23T11:01:26.428Z,46.06
2022-08-23T11:04:02.524Z,45.54
2022-08-23T11:06:52.367Z,44.91
2022-08-23T11:09:51.498Z,45.44
2022-08-23T11:12:24.487Z,44.96
2022-08-23T11:15:11.274Z,44.61
2022-08-23T11:17:53.718Z,43.84
2022-08-23T11:20:54.716Z,43.61
2022-08-23T11:23:45.488Z,44.50
2022-08-23T11:27:06.671Z,44.88
2022-08-23T11:29:41.568Z,44.58
2022-08-23T11:32:25.920Z,45.04
2022-08-23T11:35:05.602Z,44.58
2022-08-23T11:37:55.070Z,44.23
2022-08-23T11:40:41.203Z,42.99
2022-08-23T11:43:12.335Z,43.42
2022-08-23T11:45:46.462Z,43.37
2022-08-23T11:48:19.230Z,43.11
2022-08-23T11:51:02.989Z,43.61
2022-08-23T11:53:45.349Z,43.69
2022-08-23T11:56:31.164Z,43.72
2022-08-23T11:59:09.787Z,43.30
2022-08-23T12:01:39.329Z,42.65
2022-08-23T12:04:11.457Z,42.65
2022-08-23T12:06:50.618Z,42.56
2022-08-23T12:09:51.652Z,41.05
2022-08-23T12:12:36.358Z,41.50
2022-08-23T12:15:09.418Z,42.56
2022-08-23T12:18:13.295Z,41.03
2022-08-23T12:20:41.654Z,42.22
2022-08-23T12:23:21.851Z,42.34
2022-08-23T12:26:00.810Z,41.42
2022-08-23T12:28:39.315Z,41.01
2022-08-23T12:31:18.781Z,40.97
2022-08-23T12:33:55.381Z,41.05
2022-08-23T12:36:31.341Z,41.43
2022-08-23T12:39:07.594Z,40.49
2022-08-23T12:41:53.950Z,40.61
2022-08-23T12:44:23.683Z,40.21
2022-08-23T12:46:52.730Z,38.99
2022-08-23T12:49:27.112Z,39.11
2022-08-23T12:51:57.344Z,39.24
2022-08-23T12:54:35.958Z,39.36
2022-08-23T12:57:11.866Z,38.93
2022-08-23T12:59:44.291Z,39.15
2022-08-23T13:02:15.496Z,39.11
2022-08-23T13:04:44.048Z,38.73
2022-08-23T13:07:14.022Z,37.54
2022-08-23T13:09:45.431Z,38.42
2022-08-23T13:12:21.387Z,38.82
2022-08-23T13:14:50.916Z,38.59
2022-08-23T13:17:22.875Z,39.03
2022-08-23T13:19:52.309Z,39.25
2022-08-23T13:22:26.405Z,38.53
2022-08-23T13:25:27.571Z,38.86
2022-08-23T13:27:56.307Z,38.83
2022-08-23T13:30:25.812Z,38.58
2022-08-23T13:33:02.268Z,38.75
2022-08-23T13:35:33.924Z,38.73
2022-08-23T13:38:09.273Z,38.87
2022-08-23T13:40:44.419Z,39.06
2022-08-23T13:43:15.067Z,39.43
2022-08-23T13:45:47.790Z,38.98
2022-08-23T13:48:17.435Z,38.60
2022-08-23T13:50:47.233Z,38.79
2022-08-23T13:53:15.966Z,38.35
2022-08-23T13:55:51.894Z,38.74
2022-08-23T13:58:27.999Z,38.23
2022-08-23T14:00:58.772Z,37.79
2022-08-23T14:03:27.702Z,38.34
2022-08-23T14:05:55.604Z,38.08
2022-08-23T14:08:23.796Z,38.58
2022-08-23T14:10:52.989Z,37.82
2022-08-23T14:13:23.970Z,37.74
2022-08-23T14:15:56.776Z,38.03
2022-08-23T14:18:26.733Z,38.13
2022-08-23T14:20:54.381Z,37.78
2022-08-23T14:23:22.042Z,37.60
2022-08-23T14:25:52.612Z,38.12
2022-08-23T14:28:20.354Z,38.03
2022-08-23T14:30:48.900Z,38.25
2022-08-23T14:33:16.634Z,38.09
2022-08-23T14:35:44.938Z,38.14
2022-08-23T14:38:15.079Z,38.31
2022-08-23T14:40:47.893Z,37.78
2022-08-23T14:43:16.871Z,38.21
2022-08-23T14:45:44.716Z,38.14
2022-08-23T14:48:12.580Z,38.83
2022-08-23T14:50:41.186Z,38.37
2022-08-23T14:53:09.411Z,37.95
2022-08-23T14:55:37.176Z,37.84
2022-08-23T14:58:05.406Z,37.96
2022-08-23T15:00:35.852Z,38.23
2022-08-23T15:03:09.408Z,37.68
2022-08-23T15:05:37.901Z,38.25
2022-08-23T15:08:05.561Z,38.39
2022-08-23T15:13:28.775Z,38.31
2022-08-23T15:15:59.690Z,38.20
2022-08-23T15:18:27.322Z,39.08
2022-08-23T15:20:56.474Z,39.03
2022-08-23T15:23:24.429Z,38.65
2022-08-23T15:25:52.490Z,38.60
2022-08-23T15:28:21.888Z,38.32
2022-08-23T15:30:50.491Z,38.80
2022-08-23T15:33:24.707Z,38.81
2022-08-23T15:35:56.282Z,39.10
2022-08-23T15:38:25.967Z,39.29
2022-08-23T15:40:54.687Z,39.33
2022-08-23T15:43:30.091Z,39.27
2022-08-23T15:46:05.651Z,38.68
2022-08-23T15:48:38.086Z,39.10
2022-08-23T15:51:06.815Z,38.63
2022-08-23T15:53:34.670Z,38.42
2022-08-23T15:56:05.715Z,38.34
2022-08-23T15:58:33.890Z,38.33
2022-08-23T16:01:02.335Z,38.77
2022-08-23T16:03:30.336Z,38.88
2022-08-23T16:05:59.577Z,39.04
2022-08-23T16:08:29.777Z,39.11
2022-08-23T16:10:57.951Z,38.98
2022-08-23T16:13:26.682Z,39.08
2022-08-23T16:15:54.439Z,38.86
2022-08-23T16:18:22.219Z,39.13
2022-08-23T16:20:49.819Z,39.51
2022-08-23T16:23:23.489Z,39.93
2022-08-23T16:25:51.142Z,40.53
2022-08-23T16:28:18.899Z,39.92
2022-08-23T16:30:46.754Z,39.86
2022-08-23T16:33:14.478Z,40.15
2022-08-23T16:35:42.060Z,39.69
2022-08-23T16:38:09.890Z,39.59
2022-08-23T16:40:38.875Z,40.26
2022-08-23T16:43:06.820Z,40.01
2022-08-23T16:45:34.496Z,40.28
2022-08-23T16:48:02.219Z,40.53
2022-08-23T16:50:32.633Z,41.05
2022-08-23T16:53:05.016Z,41.01
2022-08-23T16:55:35.142Z,41.23
2022-08-23T16:58:05.374Z,40.63
2022-08-23T17:00:33.161Z,40.74
2022-08-23T17:03:01.337Z,40.63
2022-08-23T17:05:29.681Z,41.36
2022-08-23T17:07:57.569Z,41.07
2022-08-23T17:10:26.007Z,41.38
2022-08-23T17:12:56.145Z,41.35
2022-08-23T17:15:27.758Z,41.81
2022-08-23T17:17:55.421Z,41.16
2022-08-23T17:20:25.746Z,41.75
2022-08-23T17:22:54.302Z,41.96
2022-08-23T17:25:23.558Z,41.83
2022-08-23T17:27:53.158Z,42.30
2022-08-23T17:30:22.928Z,42.51
2022-08-23T17:32:52.574Z,42.94
2022-08-23T17:35:23.938Z,42.17
2022-08-23T17:37:51.864Z,42.36
2022-08-23T17:40:22.483Z,42.50
2022-08-23T17:42:50.262Z,42.76
2022-08-23T17:45:19.170Z,43.11
2022-08-23T17:47:47.264Z,43.25
2022-08-23T17:50:16.998Z,43.28
2022-08-23T17:52:45.030Z,43.58
2022-08-23T17:55:16.843Z,43.58
2022-08-23T17:57:47.046Z,43.79
2022-08-23T18:00:17.581Z,43.99
2022-08-23T18:02:45.317Z,44.63
2022-08-23T18:05:13.281Z,44.70
2022-08-23T18:07:42.743Z,44.63
2022-08-23T18:10:11.942Z,44.91
2022-08-23T18:12:40.613Z,45.08
2022-08-23T18:15:09.346Z,45.23
2022-08-23T18:17:38.698Z,45.59
2022-08-23T18:20:11.504Z,45.81
2022-08-23T18:22:40.098Z,45.91
2022-08-23T18:25:13.354Z,46.15
2022-08-23T18:28:01.100Z,45.85
2022-08-23T18:30:29.110Z,45.89
2022-08-23T18:32:57.311Z,45.85
2022-08-23T18:35:25.986Z,46.00
2022-08-23T18:37:54.136Z,45.75
2022-08-23T18:40:23.278Z,45.51
2022-08-23T18:42:51.733Z,45.89
2022-08-23T18:45:19.541Z,45.86
2022-08-23T18:47:49.868Z,45.83
2022-08-23T18:50:17.983Z,46.19
2022-08-23T18:52:45.667Z,46.12
2022-08-23T18:55:13.696Z,46.47
2022-08-23T18:57:43.188Z,46.82
2022-08-23T19:00:12.348Z,46.96
2022-08-23T19:02:40.145Z,46.96
2022-08-23T19:05:08.871Z,47.43
2022-08-23T19:07:36.526Z,47.56
2022-08-23T19:10:04.768Z,47.45
2022-08-23T19:12:32.531Z,47.44
2022-08-23T19:15:01.637Z,47.20
2022-08-23T19:17:29.321Z,47.36
2022-08-23T19:19:59.733Z,47.22
2022-08-23T19:22:27.511Z,47.26
2022-08-23T19:24:55.831Z,47.34
2022-08-23T19:27:24.350Z,47.61
2022-08-23T19:29:52.061Z,47.88
2022-08-23T19:32:21.345Z,47.45
2022-08-23T19:34:49.227Z,47.43
2022-08-23T19:37:20.486Z,47.64
2022-08-23T19:39:50.862Z,47.64
2022-08-23T19:42:20.480Z,47.47
2022-08-23T19:44:48.335Z,47.84
2022-08-23T19:47:19.871Z,47.82
2022-08-23T19:49:52.643Z,48.29
2022-08-23T19:52:20.369Z,48.22
2022-08-23T19:54:49.061Z,48.18
2022-08-23T19:57:16.788Z,48.17
2022-08-23T19:59:44.636Z,47.90
2022-08-23T20:02:13.874Z,48.19
2022-08-23T20:04:41.653Z,48.69
2022-08-23T20:07:10.630Z,48.55
2022-08-23T20:09:38.408Z,48.51
2022-08-23T20:12:06.485Z,48.72
2022-08-23T20:14:34.238Z,48.65
2022-08-23T20:17:04.486Z,48.48
2022-08-23T20:19:32.245Z,48.85
2022-08-23T20:22:20.282Z,48.93
2022-08-23T20:24:52.058Z,49.21
2022-08-23T20:27:28.324Z,48.85
2022-08-23T20:29:58.886Z,48.86
2022-08-23T20:32:26.772Z,48.98
2022-08-23T20:34:54.559Z,48.97
2022-08-23T20:37:22.500Z,48.76
2022-08-23T20:39:52.349Z,48.61
2022-08-23T20:42:20.396Z,49.05
2022-08-23T20:44:48.988Z,48.83
2022-08-23T20:47:16.837Z,48.99
2022-08-23T20:49:44.800Z,49.05
2022-08-23T20:52:12.897Z,49.35
2022-08-23T20:54:40.647Z,49.19
2022-08-23T20:57:09.683Z,49.16
2022-08-23T20:59:40.960Z,49.57
2022-08-23T21:02:11.616Z,49.46
2022-08-23T21:04:40.355Z,49.49
2022-08-23T21:07:08.485Z,49.51
2022-08-23T21:09:36.157Z,49.62
2022-08-23T21:12:05.332Z,49.27
2022-08-23T21:14:34.252Z,49.32
2022-08-23T21:17:02.058Z,49.28
2022-08-23T21:19:31.219Z,49.07
2022-08-23T21:21:59.253Z,49.10
2022-08-23T21:24:27.236Z,49.42
2022-08-23T21:26:54.877Z,49.51
2022-08-23T21:29:22.545Z,49.48
2022-08-23T21:31:51.533Z,49.25
2022-08-23T21:34:19.545Z,49.40
2022-08-23T21:36:47.155Z,49.47
2022-08-23T21:39:14.803Z,49.57
2022-08-23T21:41:44.451Z,49.35
2022-08-23T21:44:14.526Z,49.32
2022-08-23T21:46:42.398Z,49.72
2022-08-23T21:49:12.500Z,49.62
2022-08-23T21:51:40.555Z,49.62
2022-08-23T21:54:09.895Z,49.37
2022-08-23T21:56:38.092Z,49.46
2022-08-23T21:59:07.707Z,49.58
2022-08-23T22:01:36.240Z,49.40
2022-08-23T22:04:05.970Z,49.33
2022-08-23T22:06:36.338Z,49.06
2022-08-23T22:09:05.276Z,50.13
2022-08-23T22:11:32.922Z,50.96
2022-08-23T22:14:00.649Z,51.11
2022-08-23T22:16:28.381Z,50.89
2022-08-23T22:18:55.971Z,51.05
2022-08-23T22:21:23.624Z,51.45
2022-08-23T22:23:52.655Z,51.25
2022-08-23T22:26:20.355Z,51.14
2022-08-23T22:28:48.004Z,51.47
2022-08-23T22:31:16.096Z,52.12
2022-08-23T22:33:45.023Z,52.31
2022-08-23T22:36:14.661Z,52.82
2022-08-23T22:38:42.700Z,53.85
2022-08-23T22:41:12.484Z,54.43
2022-08-23T22:43:40.104Z,54.17
2022-08-23T22:46:07.813Z,54.46
2022-08-23T22:48:35.862Z,53.75
2022-08-23T22:51:08.289Z,53.88
2022-08-23T22:53:37.260Z,54.18
2022-08-23T22:56:05.847Z,54.19
2022-08-23T22:58:35.092Z,54.24
2022-08-23T23:01:07.048Z,53.63
2022-08-23T23:03:38.423Z,53.67
2022-08-23T23:06:08.866Z,54.10
2022-08-23T23:08:36.944Z,53.90
2022-08-23T23:11:07.448Z,53.81
2022-08-23T23:13:36.606Z,53.59
2022-08-23T23:16:06.607Z,53.73
2022-08-23T23:18:35.127Z,53.13
2022-08-23T23:21:03.843Z,53.29
2022-08-23T23:23:33.254Z,53.37
2022-08-23T23:26:01.191Z,53.30
2022-08-23T23:28:29.039Z,53.18
2022-08-23T23:30:59.447Z,53.19
2022-08-23T23:33:28.073Z,53.38
2022-08-23T23:35:57.181Z,53.76
2022-08-23T23:38:24.913Z,53.82
2022-08-23T23:40:52.700Z,53.36
2022-08-23T23:43:20.308Z,53.83
2022-08-23T23:45:47.983Z,55.03
2022-08-23T23:48:17.081Z,56.11
2022-08-23T23:50:45.036Z,56.28
2022-08-23T23:53:14.699Z,56.83
2022-08-23T23:55:42.460Z,55.86
2022-08-23T23:58:10.125Z,56.09
